Time;durP1;ratioP1;P1;durP2;ratioP2;P2;SDS_P1;SDS_P2;PMS_P1;PMS_P2;Temp;Humidity;BMP_temperature;BMP_pressure;BME280_temperature;BME280_humidity;BME280_pressure;Samples;Min_cycle;Max_cycle;Signal;HPM_P1;HPM_P2
2021/09/25 00:01:31;;;;;;;6.88;4.10;;;17.50;88.10;;;;;;5054553;28;20075;-75
2021/09/25 00:04:00;;;;;;;8.00;4.38;;;17.50;88.00;;;;;;5053317;28;20053;-76
2021/09/25 00:06:27;;;;;;;8.25;3.40;;;17.50;88.00;;;;;;5053963;28;20406;-74
2021/09/25 00:08:56;;;;;;;6.57;3.72;;;17.50;88.10;;;;;;5049480;28;20037;-75
2021/09/25 00:11:26;;;;;;;6.13;3.45;;;17.50;88.00;;;;;;5036970;28;20049;-75
2021/09/25 00:13:53;;;;;;;6.15;3.45;;;17.50;88.00;;;;;;5034318;28;20045;-75
2021/09/25 00:16:25;;;;;;;5.15;3.55;;;17.50;88.00;;;;;;5035073;28;20057;-75
2021/09/25 00:18:54;;;;;;;6.47;3.30;;;17.50;88.00;;;;;;5034379;28;20060;-75
2021/09/25 00:21:22;;;;;;;5.25;3.50;;;17.50;87.90;;;;;;5033268;28;20407;-75
2021/09/25 00:23:50;;;;;;;6.70;3.20;;;17.50;87.90;;;;;;5035141;28;20045;-75
2021/09/25 00:26:18;;;;;;;5.03;3.55;;;17.50;87.90;;;;;;5034132;28;20522;-75
2021/09/25 00:28:46;;;;;;;5.22;3.40;;;17.40;87.90;;;;;;5032976;28;20403;-75
2021/09/25 00:31:13;;;;;;;7.63;3.50;;;17.50;87.90;;;;;;5034158;28;20048;-76
2021/09/25 00:33:41;;;;;;;7.32;3.97;;;17.40;88.00;;;;;;5032948;28;20056;-76
2021/09/25 00:36:09;;;;;;;7.80;3.63;;;17.50;87.90;;;;;;5032043;28;20068;-76
2021/09/25 00:38:37;;;;;;;8.35;3.80;;;17.50;87.90;;;;;;5032665;28;20621;-76
2021/09/25 00:41:05;;;;;;;8.77;3.65;;;17.50;87.90;;;;;;5052318;28;20045;-75
2021/09/25 00:43:33;;;;;;;7.25;4.03;;;17.40;87.90;;;;;;5034946;28;20046;-75
2021/09/25 00:46:01;;;;;;;8.80;4.00;;;17.40;88.00;;;;;;5033755;28;20053;-76
2021/09/25 00:48:29;;;;;;;6.55;3.80;;;17.40;88.00;;;;;;5034297;28;20402;-76
2021/09/25 00:50:56;;;;;;;8.00;3.53;;;17.40;88.20;;;;;;5053647;28;20049;-75
2021/09/25 00:53:24;;;;;;;5.53;3.40;;;17.30;88.20;;;;;;5052289;28;20049;-75
2021/09/25 00:55:52;;;;;;;8.32;4.10;;;17.30;88.20;;;;;;5045064;28;20052;-76
2021/09/25 00:58:20;;;;;;;7.35;3.70;;;17.30;88.40;;;;;;5033344;28;20049;-76
2021/09/25 01:00:47;;;;;;;7.43;3.55;;;17.30;88.40;;;;;;5033749;28;20053;-76
2021/09/25 01:03:15;;;;;;;6.13;4.05;;;17.30;88.40;;;;;;5032235;28;20049;-76
2021/09/25 01:05:45;;;;;;;4.72;3.75;;;17.30;88.50;;;;;;5032465;28;20060;-75
2021/09/25 01:08:13;;;;;;;6.40;3.70;;;17.30;88.60;;;;;;5032187;28;20062;-75
2021/09/25 01:10:41;;;;;;;5.65;3.58;;;17.30;88.60;;;;;;5033443;28;20041;-76
2021/09/25 01:13:09;;;;;;;10.93;3.78;;;17.30;88.70;;;;;;5033342;28;20045;-76
2021/09/25 01:15:36;;;;;;;7.00;3.90;;;17.30;88.60;;;;;;5032184;28;20057;-75
2021/09/25 01:18:03;;;;;;;7.20;3.78;;;17.30;88.60;;;;;;5045567;28;20051;-75
2021/09/25 01:20:31;;;;;;;5.13;3.65;;;17.30;88.60;;;;;;5053113;28;20052;-76
2021/09/25 01:22:59;;;;;;;4.70;3.60;;;17.30;88.70;;;;;;5053133;28;20048;-76
2021/09/25 01:25:27;;;;;;;6.82;4.03;;;17.30;88.80;;;;;;5052846;28;20048;-76
2021/09/25 01:27:54;;;;;;;8.75;4.28;;;17.30;88.70;;;;;;5053019;28;20054;-76
2021/09/25 01:30:22;;;;;;;6.25;3.65;;;17.30;88.80;;;;;;5053010;28;20406;-76
2021/09/25 01:32:52;;;;;;;6.93;3.60;;;17.20;88.80;;;;;;5052611;28;20055;-76
2021/09/25 01:35:22;;;;;;;4.63;3.42;;;17.20;88.90;;;;;;5052860;28;20053;-76
2021/09/25 01:37:52;;;;;;;8.95;4.05;;;17.10;89.00;;;;;;5052789;28;20048;-75
2021/09/25 01:40:20;;;;;;;5.45;3.45;;;17.10;89.10;;;;;;5052629;28;20406;-75
2021/09/25 01:42:47;;;;;;;5.38;3.53;;;17.10;89.10;;;;;;5042860;28;20041;-75
2021/09/25 01:45:15;;;;;;;6.65;3.90;;;17.00;89.20;;;;;;5052627;28;20060;-75
2021/09/25 01:47:43;;;;;;;6.55;4.18;;;17.00;89.20;;;;;;5051087;28;20418;-75
2021/09/25 01:50:14;;;;;;;9.23;3.78;;;17.00;89.40;;;;;;5052557;28;20051;-75
2021/09/25 01:52:43;;;;;;;6.72;3.65;;;16.90;89.50;;;;;;5042899;28;20041;-75
2021/09/25 01:55:11;;;;;;;8.30;4.05;;;16.80;89.60;;;;;;5032432;28;20041;-75
2021/09/25 01:57:39;;;;;;;9.73;3.83;;;16.80;89.70;;;;;;5032488;28;20067;-75
2021/09/25 02:00:07;;;;;;;8.63;4.35;;;16.70;89.90;;;;;;5032301;28;20041;-75
2021/09/25 02:02:37;;;;;;;9.10;4.85;;;16.60;90.10;;;;;;5032371;28;20041;-75
2021/09/25 02:05:06;;;;;;;6.03;4.60;;;16.50;90.30;;;;;;5030679;28;20053;-75
2021/09/25 02:07:33;;;;;;;6.60;4.60;;;16.50;90.50;;;;;;5030294;28;20052;-75
2021/09/25 02:10:02;;;;;;;7.10;4.68;;;16.50;90.50;;;;;;5031854;28;20045;-75
2021/09/25 02:12:30;;;;;;;7.10;4.45;;;16.40;90.50;;;;;;5032290;28;20041;-75
2021/09/25 02:14:57;;;;;;;6.32;4.38;;;16.30;90.50;;;;;;5035791;28;20048;-75
2021/09/25 02:17:25;;;;;;;8.43;4.82;;;16.30;90.60;;;;;;5052004;28;20045;-75
2021/09/25 02:19:53;;;;;;;8.13;5.22;;;16.20;90.80;;;;;;5052154;28;20603;-75
2021/09/25 02:22:20;;;;;;;8.65;5.35;;;16.20;91.00;;;;;;5052128;28;20060;-75
2021/09/25 02:24:48;;;;;;;12.43;6.38;;;16.10;91.10;;;;;;5051726;28;20053;-75
2021/09/25 02:27:15;;;;;;;8.63;4.90;;;16.00;91.20;;;;;;5052133;28;20486;-75
2021/09/25 02:29:43;;;;;;;10.68;7.22;;;16.00;91.30;;;;;;5052124;28;20056;-75
2021/09/25 02:32:11;;;;;;;9.30;6.30;;;16.00;91.40;;;;;;5046288;28;20045;-75
2021/09/25 02:34:39;;;;;;;14.65;6.70;;;16.00;91.50;;;;;;5032201;28;20499;-75
2021/09/25 02:37:07;;;;;;;11.63;5.78;;;16.00;91.60;;;;;;5032112;28;20086;-76
2021/09/25 02:39:35;;;;;;;9.10;5.72;;;16.00;91.60;;;;;;5038101;28;20049;-75
2021/09/25 02:42:04;;;;;;;11.32;4.90;;;16.00;91.60;;;;;;5051871;28;20414;-75
2021/09/25 02:44:32;;;;;;;5.60;4.50;;;16.10;91.50;;;;;;5051742;28;20045;-75
2021/09/25 02:46:59;;;;;;;6.50;4.15;;;16.10;91.50;;;;;;5051913;28;20402;-75
2021/09/25 02:49:27;;;;;;;7.00;4.40;;;16.20;91.40;;;;;;5038679;28;20545;-74
2021/09/25 02:51:54;;;;;;;6.70;4.00;;;16.20;91.30;;;;;;5031725;28;20426;-75
2021/09/25 02:54:22;;;;;;;7.50;4.25;;;16.20;91.20;;;;;;5031801;28;20068;-75
2021/09/25 02:56:49;;;;;;;4.72;4.15;;;16.30;91.20;;;;;;5049483;28;20052;-75
2021/09/25 02:59:18;;;;;;;4.75;4.15;;;16.30;91.10;;;;;;5049804;28;20041;-75
2021/09/25 03:01:46;;;;;;;7.22;4.90;;;16.30;91.10;;;;;;5050484;28;20371;-75
2021/09/25 03:04:14;;;;;;;7.28;4.90;;;16.30;91.10;;;;;;5051579;28;20041;-75
2021/09/25 03:06:41;;;;;;;6.68;4.10;;;16.30;91.10;;;;;;5050001;28;20052;-74
2021/09/25 03:09:09;;;;;;;5.07;4.03;;;16.30;91.10;;;;;;5051637;28;20045;-75
2021/09/25 03:11:36;;;;;;;4.78;3.90;;;16.30;91.20;;;;;;5051806;28;20048;-75
2021/09/25 03:14:04;;;;;;;5.57;3.90;;;16.30;91.10;;;;;;5050027;28;20404;-75
2021/09/25 03:16:32;;;;;;;5.40;3.80;;;16.30;91.10;;;;;;5051566;28;20060;-74
2021/09/25 03:18:59;;;;;;;8.40;4.13;;;16.30;91.10;;;;;;5031920;28;20046;-74
2021/09/25 03:21:27;;;;;;;4.57;4.00;;;16.30;91.00;;;;;;5033882;28;20053;-74
2021/09/25 03:23:54;;;;;;;6.70;4.38;;;16.40;91.00;;;;;;5035305;28;20049;-75
2021/09/25 03:26:22;;;;;;;4.72;4.22;;;16.40;91.00;;;;;;5049218;28;20053;-75
2021/09/25 03:28:49;;;;;;;8.45;4.85;;;16.40;91.00;;;;;;5054886;28;20041;-75
2021/09/25 03:31:17;;;;;;;7.40;4.47;;;16.50;90.90;;;;;;5055114;28;20041;-75
2021/09/25 03:33:44;;;;;;;5.78;4.60;;;16.40;90.90;;;;;;5054954;28;20045;-75
2021/09/25 03:36:12;;;;;;;6.95;4.82;;;16.40;90.90;;;;;;5055004;28;20052;-75
2021/09/25 03:38:40;;;;;;;5.55;5.05;;;16.40;90.90;;;;;;5054965;28;20482;-74
2021/09/25 03:41:07;;;;;;;7.95;5.10;;;16.50;90.90;;;;;;5054817;28;20059;-75
2021/09/25 03:43:35;;;;;;;8.15;5.07;;;16.50;91.00;;;;;;5054630;28;20045;-75
2021/09/25 03:46:02;;;;;;;7.70;5.35;;;16.50;91.00;;;;;;5053815;28;20056;-75
2021/09/25 03:48:30;;;;;;;9.13;5.05;;;16.50;91.00;;;;;;5048817;28;20041;-75
2021/09/25 03:50:58;;;;;;;7.57;4.97;;;16.60;91.00;;;;;;5033396;28;20049;-74
2021/09/25 03:53:26;;;;;;;8.90;4.60;;;16.60;91.00;;;;;;5034790;28;20045;-75
2021/09/25 03:55:54;;;;;;;8.07;5.40;;;16.60;90.90;;;;;;5043663;28;20049;-75
2021/09/25 03:58:22;;;;;;;5.53;4.60;;;16.70;90.90;;;;;;5032687;28;20049;-75
2021/09/25 04:00:49;;;;;;;6.05;4.93;;;16.70;90.90;;;;;;5034153;28;20056;-75
2021/09/25 04:03:17;;;;;;;7.57;5.45;;;16.70;90.90;;;;;;5034482;28;20046;-75
2021/09/25 04:05:45;;;;;;;5.32;4.82;;;16.70;90.80;;;;;;5050896;28;20514;-75
2021/09/25 04:08:12;;;;;;;6.40;5.15;;;16.70;90.80;;;;;;5054279;28;20238;-75
2021/09/25 04:10:40;;;;;;;7.07;5.18;;;16.70;90.80;;;;;;5054390;28;20053;-75
2021/09/25 04:13:07;;;;;;;7.72;5.45;;;16.70;90.80;;;;;;5054414;28;20052;-75
2021/09/25 04:15:35;;;;;;;8.63;5.15;;;16.70;90.80;;;;;;5054138;28;20048;-75
2021/09/25 04:18:03;;;;;;;8.35;4.72;;;16.70;90.80;;;;;;5054180;28;20045;-75
2021/09/25 04:20:30;;;;;;;8.15;5.22;;;16.80;90.80;;;;;;5054093;28;20421;-75
2021/09/25 04:22:58;;;;;;;6.38;4.78;;;16.80;90.80;;;;;;5054151;28;20037;-75
2021/09/25 04:25:30;;;;;;;5.57;5.07;;;16.80;90.80;;;;;;5044695;28;20049;-75
2021/09/25 04:28:04;;;;;;;8.50;5.20;;;16.80;90.80;;;;;;5033839;28;20049;-75
2021/09/25 04:30:33;;;;;;;6.50;5.10;;;16.80;90.70;;;;;;5034123;28;20060;-75
2021/09/25 04:33:02;;;;;;;7.10;5.40;;;16.80;90.70;;;;;;5033303;28;20069;-75
2021/09/25 04:35:30;;;;;;;8.38;5.13;;;16.80;90.70;;;;;;5033914;28;20053;-75
2021/09/25 04:37:59;;;;;;;12.43;5.47;;;16.80;90.80;;;;;;5033898;28;20046;-75
2021/09/25 04:40:29;;;;;;;10.80;5.40;;;16.80;90.80;;;;;;5046099;28;20508;-75
2021/09/25 04:42:59;;;;;;;7.57;5.00;;;16.80;90.80;;;;;;5033699;28;20049;-75
2021/09/25 04:45:27;;;;;;;10.35;5.22;;;16.80;90.80;;;;;;5033628;28;20050;-75
2021/09/25 04:47:55;;;;;;;8.90;5.72;;;16.80;90.80;;;;;;5032242;28;20053;-75
2021/09/25 04:50:28;;;;;;;7.88;5.13;;;16.80;90.70;;;;;;5048009;28;20049;-75
2021/09/25 04:53:07;;;;;;;7.47;5.38;;;16.80;90.70;;;;;;5053426;28;20048;-75
2021/09/25 04:55:35;;;;;;;9.75;5.63;;;16.80;90.80;;;;;;5052810;28;20049;-75
2021/09/25 04:58:04;;;;;;;7.13;5.38;;;16.80;90.70;;;;;;5051579;28;20049;-75
2021/09/25 05:00:32;;;;;;;7.70;5.65;;;16.80;90.70;;;;;;5053319;28;20431;-75
2021/09/25 05:03:00;;;;;;;7.30;5.65;;;16.80;90.70;;;;;;5053088;28;20053;-75
2021/09/25 05:05:29;;;;;;;13.30;5.57;;;16.80;90.80;;;;;;5051907;28;20056;-75
2021/09/25 05:07:57;;;;;;;13.55;5.47;;;16.80;90.70;;;;;;5053096;28;20049;-75
2021/09/25 05:10:25;;;;;;;7.55;5.80;;;16.80;90.80;;;;;;5052976;28;20391;-75
2021/09/25 05:12:52;;;;;;;8.15;5.57;;;16.80;90.80;;;;;;5053149;28;20052;-75
2021/09/25 05:15:20;;;;;;;7.78;5.53;;;16.80;90.80;;;;;;5051898;28;20065;-75
2021/09/25 05:17:48;;;;;;;7.70;5.35;;;16.80;90.80;;;;;;5051940;28;20501;-75
2021/09/25 05:20:15;;;;;;;9.27;5.47;;;16.80;90.80;;;;;;5051749;28;20394;-74
2021/09/25 05:22:43;;;;;;;12.32;5.38;;;16.80;90.80;;;;;;5052932;28;20064;-74
2021/09/25 05:25:11;;;;;;;13.52;6.00;;;16.80;90.90;;;;;;5045793;28;20037;-75
2021/09/25 05:27:40;;;;;;;10.98;6.18;;;16.80;90.90;;;;;;5032907;28;20049;-75
2021/09/25 05:30:09;;;;;;;10.10;6.70;;;16.80;91.00;;;;;;5031459;28;20050;-74
2021/09/25 05:32:37;;;;;;;7.25;6.32;;;16.80;91.00;;;;;;5032749;28;20524;-74
2021/09/25 05:35:05;;;;;;;11.75;6.70;;;16.80;91.00;;;;;;5031571;28;20406;-75
2021/09/25 05:37:33;;;;;;;14.23;7.18;;;16.80;91.00;;;;;;5032769;28;20395;-74
2021/09/25 05:40:01;;;;;;;10.23;6.72;;;16.80;91.10;;;;;;5024648;28;20056;-75
2021/09/25 05:42:30;;;;;;;10.48;6.72;;;16.80;91.10;;;;;;5050719;28;20379;-75
2021/09/25 05:44:57;;;;;;;14.38;9.25;;;16.80;91.10;;;;;;5051326;28;20059;-73
2021/09/25 05:47:25;;;;;;;16.05;8.82;;;16.80;91.10;;;;;;5052532;28;20533;-74
2021/09/25 05:49:53;;;;;;;9.65;7.13;;;16.80;91.20;;;;;;5050995;28;20045;-74
2021/09/25 05:52:21;;;;;;;12.88;7.97;;;16.80;91.20;;;;;;5051095;28;20053;-74
2021/09/25 05:54:48;;;;;;;14.57;8.65;;;16.80;91.20;;;;;;5050551;28;20038;-75
2021/09/25 05:57:16;;;;;;;15.57;8.90;;;16.80;91.30;;;;;;5052123;28;20403;-74
2021/09/25 05:59:43;;;;;;;13.98;9.35;;;16.80;91.40;;;;;;5050976;28;20049;-75
2021/09/25 06:02:12;;;;;;;16.73;10.70;;;16.80;91.40;;;;;;5052214;28;20044;-75
2021/09/25 06:04:39;;;;;;;17.92;11.05;;;16.80;91.50;;;;;;5052065;28;20053;-75
2021/09/25 06:07:11;;;;;;;17.25;10.90;;;16.80;91.60;;;;;;5050369;28;20059;-75
2021/09/25 06:09:39;;;;;;;25.70;11.43;;;16.80;91.60;;;;;;5050751;28;20402;-75
2021/09/25 06:12:07;;;;;;;16.98;11.35;;;16.80;91.70;;;;;;5033313;28;20124;-75
2021/09/25 06:14:35;;;;;;;15.65;11.52;;;16.80;91.70;;;;;;5031751;28;20042;-75
2021/09/25 06:17:03;;;;;;;20.10;12.00;;;16.80;91.80;;;;;;5033257;28;20049;-75
2021/09/25 06:19:31;;;;;;;17.55;11.25;;;16.80;91.80;;;;;;5032271;28;20049;-75
2021/09/25 06:21:59;;;;;;;17.83;11.95;;;16.80;91.90;;;;;;5031760;28;20041;-74
2021/09/25 06:24:26;;;;;;;19.00;12.07;;;16.80;91.90;;;;;;5030612;28;20058;-74
2021/09/25 06:26:54;;;;;;;20.63;11.73;;;16.80;91.90;;;;;;5014622;28;20490;-73
2021/09/25 06:29:21;;;;;;;19.23;11.77;;;16.80;92.00;;;;;;5030760;28;20376;-74
2021/09/25 06:31:49;;;;;;;19.58;11.70;;;16.80;92.00;;;;;;5030835;28;20038;-74
2021/09/25 06:34:16;;;;;;;17.60;11.80;;;16.80;92.00;;;;;;5032554;28;20057;-74
2021/09/25 06:36:44;;;;;;;15.95;10.60;;;16.80;92.00;;;;;;5030397;28;20058;-74
2021/09/25 06:39:11;;;;;;;17.42;11.93;;;16.80;92.10;;;;;;5034890;28;20052;-75
2021/09/25 06:41:39;;;;;;;16.73;11.30;;;16.80;92.10;;;;;;5037906;28;20053;-74
2021/09/25 06:44:07;;;;;;;21.05;12.65;;;16.90;92.10;;;;;;5030301;28;20052;-75
2021/09/25 06:46:35;;;;;;;19.65;13.05;;;16.90;92.00;;;;;;5031835;28;20053;-74
2021/09/25 06:49:03;;;;;;;18.33;12.73;;;16.90;92.00;;;;;;5032498;28;20049;-75
2021/09/25 06:51:31;;;;;;;22.17;12.32;;;16.90;92.00;;;;;;5032600;28;20069;-75
2021/09/25 06:53:59;;;;;;;18.48;12.82;;;17.00;92.00;;;;;;5038872;28;20037;-74
2021/09/25 06:56:26;;;;;;;20.15;12.25;;;16.90;92.00;;;;;;5064693;28;20049;-75
2021/09/25 06:58:54;;;;;;;22.98;12.77;;;17.00;92.00;;;;;;5076171;28;20049;-75
2021/09/25 07:01:21;;;;;;;20.42;12.45;;;17.00;92.00;;;;;;5074388;28;20502;-75
2021/09/25 07:03:49;;;;;;;14.60;12.23;;;17.00;92.00;;;;;;5075743;28;20478;-76
2021/09/25 07:06:17;;;;;;;19.95;12.38;;;17.10;92.00;;;;;;5060725;28;20046;-74
2021/09/25 07:08:45;;;;;;;19.75;12.60;;;17.00;92.00;;;;;;5054010;28;20061;-74
2021/09/25 07:11:13;;;;;;;18.52;12.45;;;17.10;92.00;;;;;;5055641;28;20064;-74
2021/09/25 07:13:42;;;;;;;21.48;12.38;;;17.10;91.90;;;;;;5055098;28;20056;-73
2021/09/25 07:16:12;;;;;;;17.73;11.85;;;17.10;92.00;;;;;;5054013;28;20053;-73
2021/09/25 07:18:40;;;;;;;18.15;12.15;;;17.20;91.90;;;;;;5055969;28;20052;-73
2021/09/25 07:21:08;;;;;;;19.35;12.57;;;17.20;91.90;;;;;;5055501;28;20045;-73
2021/09/25 07:23:36;;;;;;;18.63;11.77;;;17.20;91.90;;;;;;5053955;28;20049;-73
2021/09/25 07:26:04;;;;;;;22.67;12.95;;;17.20;91.90;;;;;;5054931;28;20064;-74
2021/09/25 07:28:33;;;;;;;21.40;13.18;;;17.20;91.80;;;;;;5038807;28;20053;-73
2021/09/25 07:31:03;;;;;;;22.48;13.68;;;17.20;91.80;;;;;;5055354;28;20052;-74
2021/09/25 07:33:30;;;;;;;22.42;13.88;;;17.20;91.80;;;;;;5047412;28;20038;-73
2021/09/25 07:36:00;;;;;;;19.70;13.30;;;17.30;91.90;;;;;;5043686;28;20406;-74
2021/09/25 07:38:29;;;;;;;21.48;12.73;;;17.30;91.90;;;;;;5053481;28;20049;-74
2021/09/25 07:40:57;;;;;;;17.75;12.45;;;17.30;91.80;;;;;;5054877;28;20045;-74
2021/09/25 07:43:25;;;;;;;18.73;12.27;;;17.40;91.80;;;;;;5061858;28;20049;-73
2021/09/25 07:45:55;;;;;;;15.68;11.75;;;17.40;91.80;;;;;;5074978;28;20052;-73
2021/09/25 07:48:24;;;;;;;17.70;12.02;;;17.40;91.70;;;;;;5075074;28;20404;-74
2021/09/25 07:50:52;;;;;;;15.57;11.40;;;17.50;91.70;;;;;;5074622;28;20059;-74
2021/09/25 07:53:19;;;;;;;15.60;12.15;;;17.50;91.60;;;;;;5059202;28;20056;-74
2021/09/25 07:55:47;;;;;;;14.50;10.93;;;17.60;91.60;;;;;;5054569;28;20136;-74
2021/09/25 07:58:15;;;;;;;13.90;9.85;;;17.60;91.50;;;;;;5054816;28;20049;-74
2021/09/25 08:00:43;;;;;;;11.35;9.43;;;17.70;91.40;;;;;;5054805;28;20045;-74
2021/09/25 08:03:11;;;;;;;12.30;9.73;;;17.70;91.30;;;;;;5053299;28;20049;-74
2021/09/25 08:05:39;;;;;;;12.45;9.93;;;17.80;91.20;;;;;;5054360;28;20049;-74
2021/09/25 08:08:06;;;;;;;11.57;9.88;;;17.80;91.00;;;;;;5056003;28;20075;-75
2021/09/25 08:10:34;;;;;;;12.25;9.75;;;17.80;91.00;;;;;;5055495;28;20049;-76
2021/09/25 08:13:02;;;;;;;9.32;8.43;;;17.80;91.00;;;;;;5054303;28;20056;-76
2021/09/25 08:15:48;;;;;;;11.00;8.95;;;17.80;90.90;;;;;;5054397;28;20049;-75
2021/09/25 08:18:17;;;;;;;10.88;8.40;;;17.80;90.70;;;;;;5054331;28;20053;-76
2021/09/25 08:20:45;;;;;;;11.38;8.63;;;17.80;90.70;;;;;;5054556;28;20037;-82
2021/09/25 08:23:12;;;;;;;11.50;8.85;;;17.80;90.70;;;;;;5054130;28;20045;-74
2021/09/25 08:25:40;;;;;;;11.73;9.35;;;17.80;90.80;;;;;;5034365;28;20380;-75
2021/09/25 08:28:08;;;;;;;18.10;10.73;;;17.80;90.70;;;;;;5042832;28;20056;-75
2021/09/25 08:30:36;;;;;;;10.52;9.38;;;17.80;90.80;;;;;;5035855;28;20041;-73
2021/09/25 08:33:03;;;;;;;10.30;8.30;;;17.80;90.80;;;;;;5037632;28;20049;-75
2021/09/25 08:35:31;;;;;;;10.50;8.70;;;17.80;90.60;;;;;;5054090;28;20048;-75
2021/09/25 08:37:59;;;;;;;11.15;8.18;;;17.80;90.50;;;;;;5036288;28;20040;-75
2021/09/25 08:40:27;;;;;;;10.82;8.38;;;17.90;90.50;;;;;;5053719;28;20068;-75
2021/09/25 08:42:55;;;;;;;12.57;8.20;;;17.90;90.40;;;;;;5036942;28;20422;-75
2021/09/25 08:45:23;;;;;;;12.35;7.68;;;18.00;90.30;;;;;;5053655;28;20045;-75
2021/09/25 08:47:55;;;;;;;12.75;9.25;;;17.90;90.20;;;;;;5052042;28;20048;-75
2021/09/25 08:50:23;;;;;;;13.98;9.13;;;18.10;90.20;;;;;;5062244;28;20051;-73
2021/09/25 08:52:51;;;;;;;12.77;8.52;;;18.10;90.10;;;;;;5073624;28;20048;-73
2021/09/25 08:55:18;;;;;;;12.63;8.38;;;18.30;90.00;;;;;;5072436;28;20067;-75
2021/09/25 08:57:46;;;;;;;9.05;7.75;;;18.30;89.90;;;;;;5070177;28;20068;-74
2021/09/25 09:00:32;;;;;;;10.07;8.50;;;18.40;89.70;;;;;;5053532;28;20076;-74
2021/09/25 09:03:36;;;;;;;13.25;7.40;;;18.50;89.70;;;;;;5069361;28;20059;-74
2021/09/25 09:06:22;;;;;;;9.77;7.13;;;18.60;89.40;;;;;;5037899;28;20042;-86
2021/09/25 09:08:55;;;;;;;9.25;7.13;;;18.70;89.20;;;;;;5022177;28;20056;-74
2021/09/25 09:11:23;;;;;;;7.18;6.32;;;18.80;89.10;;;;;;5023496;28;20060;-74
2021/09/25 09:13:56;;;;;;;11.40;6.95;;;19.00;88.80;;;;;;5028333;28;20053;-74
2021/09/25 09:16:24;;;;;;;10.20;6.28;;;19.00;88.40;;;;;;5030009;28;20486;-75
2021/09/25 09:18:52;;;;;;;7.53;6.65;;;19.30;88.20;;;;;;5013397;28;20049;-74
2021/09/25 09:21:21;;;;;;;6.82;6.10;;;19.30;87.90;;;;;;5030477;28;20503;-73
2021/09/25 09:23:54;;;;;;;9.48;5.70;;;19.40;87.80;;;;;;5030804;28;20053;-73
2021/09/25 09:26:27;;;;;;;7.82;4.88;;;19.50;87.30;;;;;;5030948;28;20049;-73
2021/09/25 09:28:58;;;;;;;5.78;5.25;;;19.60;86.90;;;;;;5014379;28;20411;-73
2021/09/25 09:31:26;;;;;;;5.05;4.43;;;19.80;86.40;;;;;;5030684;28;20045;-73
2021/09/25 09:34:05;;;;;;;6.07;4.82;;;19.90;86.20;;;;;;5030263;28;20511;-73
2021/09/25 09:36:43;;;;;;;7.45;4.18;;;20.00;85.70;;;;;;5029603;28;20053;-74
2021/09/25 09:39:13;;;;;;;4.40;4.00;;;20.00;85.10;;;;;;5014111;28;20095;-74
2021/09/25 09:41:45;;;;;;;5.20;4.13;;;20.00;84.50;;;;;;5032981;28;20049;-73
2021/09/25 09:44:14;;;;;;;7.85;4.05;;;19.90;84.50;;;;;;5032489;28;20057;-73
2021/09/25 09:46:52;;;;;;;5.72;4.13;;;19.80;84.70;;;;;;5032946;28;20041;-74
2021/09/25 09:49:22;;;;;;;6.22;4.40;;;19.70;84.90;;;;;;5031294;28;20045;-74
2021/09/25 09:51:58;;;;;;;4.72;4.30;;;19.60;85.00;;;;;;5032682;28;20041;-74
2021/09/25 09:54:28;;;;;;;4.57;3.80;;;19.60;85.10;;;;;;5032659;28;20411;-74
2021/09/25 09:56:58;;;;;;;4.50;4.00;;;19.50;85.20;;;;;;5030942;28;20093;-74
2021/09/25 09:59:27;;;;;;;5.03;4.40;;;19.50;85.10;;;;;;5032246;28;20045;-75
2021/09/25 10:01:55;;;;;;;5.35;4.85;;;19.40;85.30;;;;;;5032436;28;20053;-74
2021/09/25 10:04:23;;;;;;;8.05;4.88;;;19.40;85.50;;;;;;5032599;28;20060;-75
2021/09/25 10:06:52;;;;;;;5.45;4.30;;;19.40;85.50;;;;;;5032224;28;20407;-74
2021/09/25 10:09:23;;;;;;;3.92;3.63;;;19.40;85.30;;;;;;5031230;28;20053;-74
2021/09/25 10:11:54;;;;;;;4.45;3.80;;;19.40;85.30;;;;;;5032455;28;20052;-75
2021/09/25 10:14:24;;;;;;;4.30;3.90;;;19.40;84.90;;;;;;5032345;28;20057;-74
2021/09/25 10:16:54;;;;;;;5.32;4.10;;;19.40;85.00;;;;;;5032469;28;20048;-75
2021/09/25 10:19:30;;;;;;;4.03;3.72;;;19.50;84.90;;;;;;5032500;28;20103;-73
2021/09/25 10:22:11;;;;;;;5.00;4.30;;;19.70;84.90;;;;;;5032709;28;20054;-73
2021/09/25 10:25:11;;;;;;;4.40;4.00;;;19.80;84.80;;;;;;5032370;28;20064;-73
2021/09/25 10:27:41;;;;;;;4.40;3.90;;;20.00;84.10;;;;;;5032293;28;20483;-74
2021/09/25 10:30:12;;;;;;;6.15;3.80;;;20.10;83.60;;;;;;5031514;28;20064;-74
2021/09/25 10:32:48;;;;;;;4.60;3.70;;;20.20;83.50;;;;;;5032211;28;20057;-75
2021/09/25 10:35:17;;;;;;;4.22;3.83;;;20.30;83.50;;;;;;5032321;28;20411;-74
2021/09/25 10:37:55;;;;;;;3.70;3.40;;;20.40;83.30;;;;;;5030793;28;20056;-74
2021/09/25 10:40:42;;;;;;;4.45;3.50;;;20.50;82.60;;;;;;5032157;28;20042;-74
2021/09/25 10:43:28;;;;;;;4.80;3.60;;;20.50;82.60;;;;;;5031758;28;20406;-74
2021/09/25 10:45:59;;;;;;;4.82;3.70;;;20.50;82.30;;;;;;5032128;28;20041;-74
2021/09/25 10:48:29;;;;;;;7.75;3.80;;;20.50;82.30;;;;;;5032131;28;20057;-74
2021/09/25 10:51:08;;;;;;;6.88;3.60;;;20.40;82.20;;;;;;5032120;28;20395;-75
2021/09/25 10:53:44;;;;;;;3.65;3.35;;;20.30;82.10;;;;;;5031973;28;20049;-74
2021/09/25 10:56:20;;;;;;;4.65;3.63;;;20.30;81.90;;;;;;5032117;28;20052;-75
2021/09/25 10:58:53;;;;;;;4.03;3.38;;;20.20;81.90;;;;;;5031773;28;20057;-74
2021/09/25 11:01:31;;;;;;;3.80;3.38;;;20.10;82.10;;;;;;5031978;28;20494;-74
2021/09/25 11:04:05;;;;;;;4.72;3.72;;;20.00;82.30;;;;;;5032387;28;20052;-74
2021/09/25 11:06:49;;;;;;;4.90;3.30;;;19.80;82.50;;;;;;5031908;28;20049;-74
2021/09/25 11:09:40;;;;;;;3.28;3.00;;;19.80;82.80;;;;;;5031924;28;20053;-74
2021/09/25 11:12:14;;;;;;;3.38;3.08;;;20.00;82.50;;;;;;5031787;28;20046;-74
2021/09/25 11:14:46;;;;;;;2.90;2.60;;;20.20;82.20;;;;;;5031842;28;20045;-74
2021/09/25 11:17:17;;;;;;;3.05;2.47;;;20.30;81.40;;;;;;5031935;28;20042;-74
2021/09/25 11:20:07;;;;;;;5.40;2.50;;;20.50;80.70;;;;;;5031861;28;20048;-74
2021/09/25 11:22:47;;;;;;;3.55;2.70;;;20.60;80.20;;;;;;5030432;28;20463;-75
2021/09/25 11:25:17;;;;;;;2.60;2.40;;;20.60;79.60;;;;;;5030635;28;20057;-74
2021/09/25 11:27:54;;;;;;;3.10;2.60;;;20.60;79.90;;;;;;5031572;28;20071;-74
2021/09/25 11:30:24;;;;;;;3.03;2.72;;;20.50;80.10;;;;;;5031885;28;20526;-74
2021/09/25 11:32:58;;;;;;;6.50;3.42;;;20.50;80.40;;;;;;5031635;28;20064;-74
2021/09/25 11:35:35;;;;;;;3.33;2.97;;;20.40;80.60;;;;;;5030551;28;20041;-74
2021/09/25 11:38:05;;;;;;;3.80;3.50;;;20.30;80.80;;;;;;5031692;28;20075;-74
2021/09/25 11:40:36;;;;;;;3.85;3.55;;;20.20;81.20;;;;;;5031551;28;20056;-74
2021/09/25 11:43:04;;;;;;;5.60;3.22;;;20.00;81.60;;;;;;5032768;28;20045;-75
2021/09/25 11:45:37;;;;;;;5.43;3.40;;;19.90;82.00;;;;;;5035169;28;20497;-74
2021/09/25 11:48:07;;;;;;;3.53;3.22;;;19.90;82.40;;;;;;5035044;28;20049;-74
2021/09/25 11:50:37;;;;;;;6.03;3.85;;;19.80;82.50;;;;;;5035310;28;20060;-74
2021/09/25 11:53:10;;;;;;;4.10;3.15;;;19.90;82.50;;;;;;5034924;28;20053;-74
2021/09/25 11:55:39;;;;;;;5.28;2.90;;;19.90;82.70;;;;;;5034770;28;20446;-75
2021/09/25 11:58:10;;;;;;;5.13;3.17;;;20.10;82.60;;;;;;5035263;28;20049;-75
2021/09/25 12:00:45;;;;;;;4.18;3.00;;;20.20;82.30;;;;;;5034870;28;20406;-75
2021/09/25 12:03:15;;;;;;;3.17;2.88;;;20.30;82.00;;;;;;5050234;28;20088;-75
2021/09/25 12:05:49;;;;;;;4.32;2.90;;;20.50;81.60;;;;;;5074114;28;20060;-75
2021/09/25 12:08:23;;;;;;;4.65;3.13;;;20.70;81.20;;;;;;5071823;28;20056;-75
2021/09/25 12:11:06;;;;;;;3.75;2.78;;;20.90;80.50;;;;;;5073222;28;20061;-75
2021/09/25 12:13:44;;;;;;;2.93;2.73;;;21.30;79.40;;;;;;5073134;28;20508;-75
2021/09/25 12:16:16;;;;;;;5.10;2.90;;;21.50;79.00;;;;;;5073460;28;20053;-75
2021/09/25 12:18:49;;;;;;;2.50;2.00;;;21.80;78.70;;;;;;5073160;28;20059;-75
2021/09/25 12:21:19;;;;;;;3.35;2.58;;;22.20;77.70;;;;;;5072961;28;20399;-75
2021/09/25 12:23:56;;;;;;;2.50;2.30;;;22.70;76.60;;;;;;5071902;28;20045;-75
2021/09/25 12:26:29;;;;;;;4.68;2.22;;;22.80;74.80;;;;;;5072244;28;20398;-76
2021/09/25 12:29:11;;;;;;;4.88;2.42;;;22.80;73.80;;;;;;5073677;28;20371;-75
2021/09/25 12:31:39;;;;;;;2.22;2.08;;;22.70;73.90;;;;;;5072959;28;20056;-76
2021/09/25 12:34:14;;;;;;;2.50;2.30;;;22.70;74.00;;;;;;5074197;28;20478;-75
2021/09/25 12:36:44;;;;;;;4.68;2.28;;;22.80;73.50;;;;;;5074027;28;20049;-76
2021/09/25 12:39:15;;;;;;;3.08;2.35;;;23.00;73.10;;;;;;5072809;28;20040;-74
2021/09/25 12:41:48;;;;;;;3.28;1.80;;;23.70;71.90;;;;;;5073914;28;20067;-75
2021/09/25 12:44:18;;;;;;;2.40;2.15;;;24.10;70.60;;;;;;5072781;28;20071;-75
2021/09/25 12:46:48;;;;;;;2.30;2.10;;;24.20;69.60;;;;;;5055990;28;20048;-75
2021/09/25 12:49:17;;;;;;;2.00;1.80;;;24.00;69.10;;;;;;5073815;28;20052;-74
2021/09/25 12:51:46;;;;;;;3.50;2.00;;;23.90;68.90;;;;;;5072377;28;20048;-74
2021/09/25 12:54:16;;;;;;;2.17;1.95;;;23.80;68.00;;;;;;5073062;28;20533;-74
2021/09/25 12:56:53;;;;;;;2.95;2.13;;;23.60;68.60;;;;;;5074022;28;20045;-74